createdAt,value
2019-05-14T00:01:38.433Z,2.60
2019-05-14T00:04:05.206Z,2.53
2019-05-14T00:06:32.092Z,2.40
2019-05-14T00:08:58.943Z,2.43
2019-05-14T00:11:25.938Z,2.40
2019-05-14T00:13:52.741Z,2.50
2019-05-14T00:16:22.251Z,2.83
2019-05-14T00:18:48.274Z,2.40
2019-05-14T00:21:15.022Z,2.40
2019-05-14T00:23:42.153Z,2.27
2019-05-14T00:26:09.186Z,2.60
2019-05-14T00:28:36.133Z,2.80
2019-05-14T00:31:03.150Z,2.40
2019-05-14T00:33:31.591Z,2.40
2019-05-14T00:35:58.406Z,2.83
2019-05-14T00:38:25.664Z,2.63
2019-05-14T00:40:52.413Z,3.30
2019-05-14T00:43:21.508Z,2.23
2019-05-14T00:45:48.305Z,2.40
2019-05-14T00:48:15.166Z,2.37
2019-05-14T00:50:42.222Z,2.60
2019-05-14T00:53:11.682Z,2.80
2019-05-14T00:55:37.690Z,2.50
2019-05-14T00:58:05.657Z,2.47
2019-05-14T01:00:32.710Z,2.60
2019-05-14T01:03:01.920Z,2.67
2019-05-14T01:05:28.880Z,2.37
2019-05-14T01:07:55.640Z,2.53
2019-05-14T01:10:22.540Z,2.73
2019-05-14T01:12:51.894Z,2.40
2019-05-14T01:15:18.518Z,2.53
2019-05-14T01:17:45.293Z,2.30
2019-05-14T01:20:12.547Z,2.53
2019-05-14T01:22:42.053Z,2.70
2019-05-14T01:25:08.915Z,2.20
2019-05-14T01:27:35.781Z,2.17
2019-05-14T01:30:02.948Z,2.10
2019-05-14T01:32:31.499Z,2.53
2019-05-14T01:34:58.378Z,2.50
2019-05-14T01:37:25.137Z,2.30
2019-05-14T01:39:52.255Z,2.30
2019-05-14T01:42:21.475Z,2.10
2019-05-14T01:44:48.418Z,2.00
2019-05-14T01:47:15.189Z,2.10
2019-05-14T01:49:42.744Z,2.40
2019-05-14T01:52:11.295Z,1.90
2019-05-14T01:54:38.197Z,2.17
2019-05-14T01:57:04.993Z,1.87
2019-05-14T01:59:32.323Z,1.83
2019-05-14T02:02:02.127Z,2.30
2019-05-14T02:04:28.770Z,2.17
2019-05-14T02:06:55.900Z,2.20
2019-05-14T02:09:22.761Z,2.07
2019-05-14T02:11:51.795Z,2.00
2019-05-14T02:14:18.474Z,2.03
2019-05-14T02:16:45.532Z,2.13
2019-05-14T02:19:12.387Z,1.97
2019-05-14T02:21:39.295Z,2.13
2019-05-14T02:24:06.281Z,2.10
2019-05-14T02:26:33.181Z,2.37
2019-05-14T02:29:02.157Z,1.87
2019-05-14T02:31:29.312Z,2.07
2019-05-14T02:33:58.985Z,2.20
2019-05-14T02:36:25.078Z,2.20
2019-05-14T02:38:51.839Z,2.13
2019-05-14T02:41:19.774Z,2.10
2019-05-14T02:43:49.928Z,1.90
2019-05-14T02:46:55.705Z,2.20
2019-05-14T02:50:40.689Z,1.90
2019-05-14T02:53:10.237Z,1.70
2019-05-14T02:55:38.962Z,1.90
2019-05-14T02:58:05.264Z,1.80
2019-05-14T03:00:32.933Z,1.70
2019-05-14T03:03:00.094Z,2.07
2019-05-14T03:05:29.522Z,1.90
2019-05-14T03:07:55.820Z,2.07
2019-05-14T03:10:22.684Z,2.20
2019-05-14T03:12:50.414Z,1.63
2019-05-14T03:15:20.131Z,1.83
2019-05-14T03:17:49.205Z,1.70
2019-05-14T03:20:15.157Z,2.10
2019-05-14T03:22:55.471Z,1.93
2019-05-14T03:25:11.738Z,2.00
2019-05-14T03:27:40.493Z,1.87
2019-05-14T03:30:12.623Z,1.90
2019-05-14T03:32:41.799Z,2.00
2019-05-14T03:35:05.996Z,2.13
2019-05-14T03:37:34.842Z,2.03
2019-05-14T03:40:01.751Z,2.10
2019-05-14T03:42:29.266Z,2.10
2019-05-14T03:44:59.375Z,2.30
2019-05-14T03:47:25.363Z,2.10
2019-05-14T03:49:52.439Z,2.50
2019-05-14T03:52:20.139Z,2.37
2019-05-14T03:54:49.669Z,2.23
2019-05-14T03:57:15.771Z,2.40
2019-05-14T03:59:42.600Z,2.60
2019-05-14T04:02:09.873Z,2.80
2019-05-14T04:04:39.371Z,2.80
2019-05-14T04:07:09.374Z,2.80
2019-05-14T04:09:35.160Z,2.70
2019-05-14T04:12:02.041Z,2.87
2019-05-14T04:14:30.819Z,2.73
2019-05-14T04:17:09.295Z,2.90
2019-05-14T04:19:31.359Z,2.97
2019-05-14T04:21:59.893Z,3.03
2019-05-14T04:24:29.815Z,2.77
2019-05-14T04:27:07.303Z,2.57
2019-05-14T04:29:30.583Z,2.80
2019-05-14T04:32:00.139Z,2.70
2019-05-14T04:34:30.039Z,2.87
2019-05-14T04:36:59.215Z,3.20
2019-05-14T04:39:25.257Z,2.80
2019-05-14T04:41:52.156Z,2.80
2019-05-14T04:44:19.408Z,2.77
2019-05-14T04:46:49.327Z,2.80
2019-05-14T04:49:15.675Z,2.50
2019-05-14T04:51:43.017Z,2.60
2019-05-14T04:54:10.076Z,2.90
2019-05-14T04:56:39.778Z,2.90
2019-05-14T04:59:10.510Z,2.70
2019-05-14T05:01:39.911Z,3.03
2019-05-14T05:04:09.253Z,2.80
2019-05-14T05:06:34.644Z,3.20
2019-05-14T05:09:01.599Z,2.90
2019-05-14T05:11:29.220Z,3.00
2019-05-14T05:13:58.542Z,2.80
2019-05-14T05:16:25.362Z,3.13
2019-05-14T05:18:52.481Z,3.00
2019-05-14T05:21:19.635Z,3.20
2019-05-14T05:23:49.044Z,2.90
2019-05-14T05:26:18.271Z,2.70
2019-05-14T05:28:58.221Z,3.07
2019-05-14T05:31:13.130Z,3.17
2019-05-14T05:33:39.925Z,2.60
2019-05-14T05:36:09.181Z,2.63
2019-05-14T05:38:35.696Z,2.80
2019-05-14T05:41:02.580Z,2.60
2019-05-14T05:43:29.374Z,2.33
2019-05-14T05:45:56.147Z,2.90
2019-05-14T05:48:23.065Z,2.63
2019-05-14T05:50:50.265Z,2.73
2019-05-14T05:53:19.249Z,2.60
2019-05-14T05:55:48.308Z,2.80
2019-05-14T05:58:14.646Z,2.70
2019-05-14T06:00:41.575Z,2.80
2019-05-14T06:03:10.874Z,2.50
2019-05-14T06:05:38.902Z,2.60
2019-05-14T06:08:08.437Z,2.50
2019-05-14T06:10:34.872Z,2.40
2019-05-14T06:13:01.890Z,2.70
2019-05-14T06:15:43.850Z,2.77
2019-05-14T06:18:11.489Z,2.50
2019-05-14T06:20:28.216Z,3.03
2019-05-14T06:22:55.523Z,3.00
2019-05-14T06:25:22.402Z,3.00
2019-05-14T06:27:49.297Z,3.20
2019-05-14T06:30:45.086Z,2.80
2019-05-14T06:33:11.899Z,2.90
2019-05-14T06:35:39.605Z,2.70
2019-05-14T06:38:08.918Z,2.67
2019-05-14T06:40:35.863Z,3.20
2019-05-14T06:43:03.034Z,2.40
2019-05-14T06:45:30.096Z,2.90
2019-05-14T06:47:59.171Z,2.80
2019-05-14T06:50:28.335Z,2.93
2019-05-14T06:52:54.450Z,3.20
2019-05-14T06:55:21.250Z,3.20
2019-05-14T06:57:48.245Z,2.97
2019-05-14T07:00:15.151Z,2.70
2019-05-14T07:02:44.131Z,2.90
2019-05-14T07:05:10.808Z,2.50
2019-05-14T07:07:40.377Z,2.70
2019-05-14T07:10:08.926Z,2.60
2019-05-14T07:12:35.488Z,3.10
2019-05-14T07:15:02.460Z,2.60
2019-05-14T07:17:29.358Z,2.53
2019-05-14T07:19:58.255Z,2.80
2019-05-14T07:22:24.964Z,2.80
2019-05-14T07:24:51.868Z,2.70
2019-05-14T07:27:19.306Z,2.57
2019-05-14T07:29:46.278Z,2.60
2019-05-14T07:32:13.214Z,2.93
2019-05-14T07:34:40.447Z,2.73
2019-05-14T07:37:09.400Z,2.57
2019-05-14T07:39:38.449Z,2.67
2019-05-14T07:42:05.209Z,2.53
2019-05-14T07:44:31.969Z,2.50
2019-05-14T07:46:59.122Z,2.23
2019-05-14T07:49:26.320Z,2.00
2019-05-14T07:51:53.477Z,2.17
2019-05-14T07:54:20.401Z,2.10
2019-05-14T07:56:50.877Z,2.10
2019-05-14T07:59:17.975Z,2.30
2019-05-14T08:01:45.141Z,2.37
2019-05-14T08:04:12.446Z,2.20
2019-05-14T08:06:39.536Z,1.70
2019-05-14T08:09:08.621Z,2.63
2019-05-14T08:11:35.858Z,2.40
2019-05-14T08:14:02.774Z,2.07
2019-05-14T08:16:29.667Z,2.30
2019-05-14T08:18:56.937Z,2.10
2019-05-14T08:21:23.685Z,1.90
2019-05-14T08:23:50.511Z,1.90
2019-05-14T08:26:19.126Z,1.97
2019-05-14T08:28:48.644Z,2.00
2019-05-14T08:31:15.713Z,1.80
2019-05-14T08:33:43.002Z,2.10
2019-05-14T08:36:09.755Z,1.93
2019-05-14T08:38:38.287Z,1.87
2019-05-14T08:41:05.478Z,1.70
2019-05-14T08:43:33.362Z,1.70
2019-05-14T08:46:00.214Z,2.00
2019-05-14T08:48:29.698Z,2.07
2019-05-14T08:50:56.045Z,1.60
2019-05-14T08:53:22.948Z,2.00
2019-05-14T08:55:50.018Z,1.87
2019-05-14T08:58:20.139Z,2.00
2019-05-14T09:00:48.071Z,1.80
2019-05-14T09:03:14.481Z,1.70
2019-05-14T09:05:41.621Z,1.60
2019-05-14T09:08:09.539Z,1.60
2019-05-14T09:10:36.546Z,1.40
2019-05-14T09:13:03.414Z,1.20
2019-05-14T09:15:30.529Z,1.50
2019-05-14T09:17:58.768Z,1.60
2019-05-14T09:20:26.074Z,1.83
2019-05-14T09:22:53.021Z,1.50
2019-05-14T09:25:19.898Z,1.67
2019-05-14T09:27:49.274Z,1.30
2019-05-14T09:30:18.310Z,1.43
2019-05-14T09:32:44.720Z,1.67
2019-05-14T09:35:11.632Z,1.40
2019-05-14T09:37:39.479Z,1.60
2019-05-14T09:40:08.764Z,1.30
2019-05-14T09:42:38.987Z,1.60
2019-05-14T09:45:04.932Z,1.40
2019-05-14T09:47:31.841Z,1.20
2019-05-14T09:50:15.053Z,1.30
2019-05-14T09:52:29.369Z,1.30
2019-05-14T09:54:58.594Z,1.30
2019-05-14T09:57:25.041Z,1.60
2019-05-14T09:59:52.196Z,1.50
2019-05-14T10:02:19.167Z,1.67
2019-05-14T10:04:49.004Z,1.50
2019-05-14T10:07:15.911Z,1.73
2019-05-14T10:09:43.093Z,2.00
2019-05-14T10:12:09.890Z,1.50
2019-05-14T10:14:39.276Z,1.57
2019-05-14T10:17:05.785Z,1.40
2019-05-14T10:19:32.681Z,1.30
2019-05-14T10:21:59.440Z,1.43
2019-05-14T10:24:26.244Z,1.30
2019-05-14T10:26:53.596Z,1.20
2019-05-14T10:29:20.784Z,1.10
2019-05-14T10:31:48.599Z,1.40
2019-05-14T10:34:15.741Z,1.20
2019-05-14T10:36:42.634Z,1.30
2019-05-14T10:39:09.857Z,1.57
2019-05-14T10:41:38.460Z,1.57
2019-05-14T10:44:05.628Z,1.53
2019-05-14T10:46:32.850Z,1.67
2019-05-14T10:49:14.668Z,1.40
2019-05-14T10:51:28.729Z,1.70
2019-05-14T10:53:59.116Z,1.60
2019-05-14T10:56:25.058Z,1.47
2019-05-14T10:58:51.699Z,1.23
2019-05-14T11:01:22.463Z,1.37
2019-05-14T11:03:48.420Z,1.40
2019-05-14T11:06:18.538Z,1.40
2019-05-14T11:08:45.221Z,1.57
2019-05-14T11:11:12.103Z,1.20
2019-05-14T11:13:44.154Z,1.60
2019-05-14T11:16:11.050Z,1.50
2019-05-14T11:18:39.974Z,2.00
2019-05-14T11:21:19.778Z,1.30
2019-05-14T11:23:38.409Z,1.60
2019-05-14T11:26:04.363Z,1.40
2019-05-14T11:28:31.126Z,1.20
2019-05-14T11:30:57.874Z,1.30
2019-05-14T11:33:25.045Z,1.43
2019-05-14T11:35:52.120Z,1.50
2019-05-14T11:38:32.339Z,1.50
2019-05-14T11:40:49.520Z,1.73
2019-05-14T11:43:16.719Z,1.30
2019-05-14T11:45:43.560Z,1.50
2019-05-14T11:48:10.644Z,1.43
2019-05-14T11:50:37.582Z,1.60
2019-05-14T11:53:05.286Z,1.37
2019-05-14T11:55:32.585Z,1.40
2019-05-14T11:57:59.561Z,1.40
2019-05-14T12:00:29.460Z,1.20
2019-05-14T12:02:58.645Z,1.70
2019-05-14T12:05:26.207Z,1.40
2019-05-14T12:07:53.075Z,1.40
2019-05-14T12:10:20.064Z,1.10
2019-05-14T12:12:48.912Z,1.50
2019-05-14T12:15:18.538Z,1.40
2019-05-14T12:17:44.577Z,1.20
2019-05-14T12:20:11.425Z,1.20
2019-05-14T12:22:39.550Z,1.30
2019-05-14T12:25:08.154Z,1.40
2019-05-14T12:27:35.470Z,1.40
2019-05-14T12:30:02.527Z,1.30
2019-05-14T12:32:29.656Z,1.40
2019-05-14T12:34:59.203Z,1.60
2019-05-14T12:37:25.392Z,1.30
2019-05-14T12:39:52.242Z,1.60
2019-05-14T12:42:19.544Z,1.40
2019-05-14T12:44:48.707Z,1.30
2019-05-14T12:47:15.557Z,1.60
2019-05-14T12:49:42.413Z,1.37
2019-05-14T12:52:21.121Z,1.30
2019-05-14T12:54:38.979Z,1.23
2019-05-14T12:57:05.904Z,1.53
2019-05-14T12:59:32.906Z,1.63
2019-05-14T13:01:59.663Z,1.53
2019-05-14T13:04:28.513Z,1.50
2019-05-14T13:06:55.737Z,1.30
2019-05-14T13:09:22.818Z,1.30
2019-05-14T13:11:49.695Z,1.47
2019-05-14T13:14:16.557Z,1.33
2019-05-14T13:16:43.381Z,1.50
2019-05-14T13:19:10.302Z,1.20
2019-05-14T13:21:39.007Z,1.47
2019-05-14T13:24:05.733Z,1.40
2019-05-14T13:26:32.383Z,1.83
2019-05-14T13:28:59.141Z,1.10
2019-05-14T13:31:29.022Z,1.43
2019-05-14T13:33:54.960Z,1.40
2019-05-14T13:36:21.832Z,1.40
2019-05-14T13:38:49.397Z,1.10
2019-05-14T13:41:19.029Z,1.57
2019-05-14T13:43:45.262Z,1.77
2019-05-14T13:46:15.066Z,1.60
2019-05-14T13:48:43.432Z,1.20
2019-05-14T13:51:09.772Z,1.40
2019-05-14T13:53:38.814Z,1.40
2019-05-14T13:56:05.553Z,1.33
2019-05-14T13:58:32.337Z,1.37
2019-05-14T14:00:59.668Z,1.30
2019-05-14T14:03:29.249Z,1.20
2019-05-14T14:05:59.128Z,1.30
2019-05-14T14:08:24.325Z,1.40
2019-05-14T14:10:53.411Z,1.30
2019-05-14T14:13:20.157Z,1.23
2019-05-14T14:15:48.893Z,1.50
2019-05-14T14:18:15.979Z,1.50
2019-05-14T14:20:42.961Z,1.30
2019-05-14T14:23:21.792Z,1.47
2019-05-14T14:25:39.556Z,1.20
2019-05-14T14:28:09.960Z,1.20
2019-05-14T14:30:35.969Z,1.40
2019-05-14T14:33:03.128Z,1.20
2019-05-14T14:35:30.545Z,1.13
2019-05-14T14:37:59.157Z,1.20
2019-05-14T14:40:25.938Z,1.30
2019-05-14T14:42:52.745Z,1.10
2019-05-14T14:45:22.425Z,1.23
2019-05-14T14:47:49.845Z,1.10
2019-05-14T14:50:19.317Z,1.27
2019-05-14T14:52:45.511Z,1.40
2019-05-14T14:55:12.381Z,1.20
2019-05-14T14:57:44.965Z,1.20
2019-05-14T15:00:10.153Z,1.20
2019-05-14T15:02:40.792Z,0.93
2019-05-14T15:05:13.302Z,1.10
2019-05-14T15:07:35.352Z,1.23
2019-05-14T15:10:02.106Z,1.10
2019-05-14T15:12:29.268Z,1.10
2019-05-14T15:14:59.252Z,1.30
2019-05-14T15:17:25.219Z,1.20
2019-05-14T15:19:52.954Z,1.30
2019-05-14T15:22:21.127Z,1.50
2019-05-14T15:24:48.818Z,1.60
2019-05-14T15:27:18.739Z,1.10
2019-05-14T15:29:45.168Z,1.40
2019-05-14T15:32:12.103Z,1.40
2019-05-14T15:34:38.859Z,1.07
2019-05-14T15:37:08.752Z,1.40
2019-05-14T15:39:34.482Z,1.43
2019-05-14T15:42:05.079Z,1.30
2019-05-14T15:44:46.824Z,1.30
2019-05-14T15:46:58.836Z,1.30
2019-05-14T15:49:28.190Z,1.30
2019-05-14T15:51:54.664Z,1.40
2019-05-14T15:54:36.129Z,1.20
2019-05-14T15:56:50.206Z,1.20
2019-05-14T15:59:19.138Z,1.30
2019-05-14T16:01:45.985Z,1.27
2019-05-14T16:04:12.987Z,1.00
2019-05-14T16:06:39.854Z,1.20
2019-05-14T16:09:06.700Z,1.30
2019-05-14T16:11:33.506Z,1.37
2019-05-14T16:14:00.367Z,1.43
2019-05-14T16:16:28.981Z,1.23
2019-05-14T16:18:55.809Z,1.30
2019-05-14T16:21:23.998Z,1.20
2019-05-14T16:23:51.580Z,1.30
2019-05-14T16:26:18.883Z,1.40
2019-05-14T16:28:46.554Z,1.50
2019-05-14T16:31:13.628Z,1.20
2019-05-14T16:33:40.943Z,1.40
2019-05-14T16:36:08.862Z,1.43
2019-05-14T16:38:36.215Z,1.47
2019-05-14T16:41:03.072Z,1.20
2019-05-14T16:43:32.377Z,1.20
2019-05-14T16:45:59.794Z,1.40
2019-05-14T16:48:28.872Z,1.20
2019-05-14T16:50:55.400Z,1.40
2019-05-14T16:53:22.252Z,1.50
2019-05-14T16:55:49.338Z,1.43
2019-05-14T16:58:19.202Z,1.30
2019-05-14T17:00:44.746Z,1.30
2019-05-14T17:03:11.639Z,1.40
2019-05-14T17:05:38.418Z,1.43
2019-05-14T17:08:05.171Z,1.10
2019-05-14T17:10:31.963Z,1.40
2019-05-14T17:13:01.780Z,1.13
2019-05-14T17:15:28.774Z,1.30
2019-05-14T17:17:55.741Z,1.40
2019-05-14T17:20:24.357Z,1.20
2019-05-14T17:22:51.277Z,1.30
2019-05-14T17:25:26.589Z,1.40
2019-05-14T17:27:48.637Z,1.73
2019-05-14T17:30:18.174Z,1.97
2019-05-14T17:32:44.510Z,1.80
2019-05-14T17:35:11.256Z,1.50
2019-05-14T17:37:39.520Z,1.30
2019-05-14T17:40:09.133Z,1.10
2019-05-14T17:42:35.464Z,1.50
2019-05-14T17:45:02.796Z,1.53
2019-05-14T17:47:30.529Z,1.30
2019-05-14T17:49:59.052Z,1.23
2019-05-14T17:52:25.957Z,1.20
2019-05-14T17:54:52.749Z,1.70
2019-05-14T17:57:24.969Z,1.23
2019-05-14T17:59:49.593Z,1.50
2019-05-14T18:02:18.946Z,1.30
2019-05-14T18:04:45.512Z,1.33
2019-05-14T18:07:12.428Z,1.23
2019-05-14T18:09:39.159Z,1.27
2019-05-14T18:12:08.030Z,1.00
2019-05-14T18:14:34.731Z,1.10
2019-05-14T18:17:01.677Z,1.20
2019-05-14T18:19:29.115Z,1.47
2019-05-14T18:21:55.991Z,1.40
2019-05-14T18:24:23.953Z,1.30
2019-05-14T18:26:50.717Z,1.20
2019-05-14T18:29:18.905Z,1.50
2019-05-14T18:31:51.369Z,1.47
2019-05-14T18:34:15.257Z,1.50
2019-05-14T18:36:42.056Z,1.57
2019-05-14T18:39:09.406Z,1.30
2019-05-14T18:41:38.747Z,1.50
2019-05-14T18:44:04.990Z,1.87
2019-05-14T18:46:33.020Z,1.37
2019-05-14T18:48:59.988Z,1.50
2019-05-14T18:51:28.770Z,1.57
2019-05-14T18:53:58.280Z,1.73
2019-05-14T18:56:24.973Z,1.40
2019-05-14T18:58:51.762Z,1.50
2019-05-14T19:01:19.563Z,1.73
2019-05-14T19:03:49.203Z,1.47
2019-05-14T19:06:15.642Z,1.40
2019-05-14T19:08:42.400Z,1.60
2019-05-14T19:11:10.092Z,1.73
2019-05-14T19:13:38.963Z,1.60
2019-05-14T19:16:08.218Z,1.70
2019-05-14T19:18:34.797Z,1.87
2019-05-14T19:21:01.719Z,1.57
2019-05-14T19:23:29.010Z,1.50
2019-05-14T19:25:56.363Z,1.43
2019-05-14T19:28:23.268Z,1.40
2019-05-14T19:30:50.045Z,1.90
2019-05-14T19:33:20.612Z,1.57
2019-05-14T19:35:48.377Z,1.73
2019-05-14T19:38:15.038Z,1.70
2019-05-14T19:40:53.938Z,1.40
2019-05-14T19:43:20.991Z,1.53
2019-05-14T19:45:48.628Z,1.40
2019-05-14T19:48:15.968Z,1.30
2019-05-14T19:50:43.328Z,1.33
2019-05-14T19:53:10.583Z,1.30
2019-05-14T19:55:39.203Z,1.50
2019-05-14T19:58:06.177Z,1.40
2019-05-14T20:00:33.058Z,1.30
2019-05-14T20:02:59.982Z,1.60
2019-05-14T20:05:28.673Z,1.10
2019-05-14T20:07:57.975Z,1.30
2019-05-14T20:10:24.489Z,1.30
2019-05-14T20:12:51.349Z,1.40
2019-05-14T20:15:18.318Z,1.30
2019-05-14T20:17:45.208Z,1.53
2019-05-14T20:20:12.152Z,1.40
2019-05-14T20:22:39.895Z,1.37
2019-05-14T20:25:07.207Z,1.50
2019-05-14T20:27:34.084Z,1.40
2019-05-14T20:30:00.952Z,1.37
2019-05-14T20:32:27.894Z,1.33
2019-05-14T20:34:54.798Z,1.40
2019-05-14T20:37:21.573Z,1.20
2019-05-14T20:39:48.579Z,1.40
2019-05-14T20:42:15.403Z,1.40
2019-05-14T20:44:44.252Z,1.17
2019-05-14T20:47:11.022Z,1.47
2019-05-14T20:49:38.227Z,1.40
2019-05-14T20:52:05.126Z,1.30
2019-05-14T20:54:31.886Z,1.17
2019-05-14T20:56:59.074Z,1.40
2019-05-14T20:59:28.126Z,1.33
2019-05-14T21:01:54.670Z,1.30
2019-05-14T21:04:21.732Z,1.20
2019-05-14T21:06:48.795Z,1.20
2019-05-14T21:09:15.797Z,1.10
2019-05-14T21:11:43.688Z,1.10
2019-05-14T21:14:10.559Z,1.30
2019-05-14T21:16:39.182Z,1.30
2019-05-14T21:19:08.458Z,1.27
2019-05-14T21:21:34.989Z,1.30
2019-05-14T21:24:01.855Z,1.37
2019-05-14T21:26:34.817Z,1.10
2019-05-14T21:29:01.735Z,1.40
2019-05-14T21:31:28.649Z,1.30
2019-05-14T21:33:55.428Z,1.20
2019-05-14T21:36:22.241Z,1.10
2019-05-14T21:38:49.313Z,1.40
2019-05-14T21:41:20.117Z,1.20
2019-05-14T21:43:45.161Z,1.30
2019-05-14T21:46:11.931Z,1.20
2019-05-14T21:48:39.167Z,1.20
2019-05-14T21:51:08.547Z,1.60
2019-05-14T21:53:34.867Z,1.30
2019-05-14T21:56:01.775Z,1.37
2019-05-14T21:58:29.263Z,1.33
2019-05-14T22:00:59.044Z,1.30
2019-05-14T22:03:25.406Z,1.50
2019-05-14T22:05:52.492Z,1.47
2019-05-14T22:08:19.248Z,1.13
2019-05-14T22:10:48.708Z,1.30
2019-05-14T22:13:15.096Z,1.13
2019-05-14T22:15:41.853Z,1.20
2019-05-14T22:18:16.938Z,1.33
2019-05-14T22:20:38.607Z,1.20
2019-05-14T22:23:05.670Z,1.30
2019-05-14T22:25:32.443Z,1.20
2019-05-14T22:28:11.130Z,1.53
2019-05-14T22:30:29.023Z,1.60
2019-05-14T22:33:00.420Z,1.40
2019-05-14T22:35:24.744Z,1.30
2019-05-14T22:37:51.685Z,1.30
2019-05-14T22:40:18.684Z,1.40
2019-05-14T22:42:45.573Z,1.70
2019-05-14T22:45:12.574Z,1.83
2019-05-14T22:47:40.406Z,1.60
2019-05-14T22:50:08.962Z,1.43
2019-05-14T22:52:38.520Z,1.67
2019-05-14T22:55:05.031Z,1.53
2019-05-14T22:57:31.835Z,1.37
2019-05-14T22:59:58.693Z,1.40
2019-05-14T23:02:25.610Z,1.30
2019-05-14T23:04:52.346Z,1.50
2019-05-14T23:07:19.251Z,1.70
2019-05-14T23:09:48.250Z,1.40
2019-05-14T23:12:15.166Z,1.40
2019-05-14T23:14:42.597Z,1.40
2019-05-14T23:17:10.565Z,1.50
2019-05-14T23:19:37.684Z,1.70
2019-05-14T23:22:04.538Z,1.53
2019-05-14T23:24:31.295Z,1.50
2019-05-14T23:26:58.565Z,1.50
2019-05-14T23:29:25.774Z,1.50
2019-05-14T23:31:53.563Z,1.40
2019-05-14T23:34:20.630Z,1.40
2019-05-14T23:36:48.289Z,1.60
2019-05-14T23:39:15.403Z,1.50
2019-05-14T23:41:42.297Z,1.50
2019-05-14T23:44:09.158Z,1.60
2019-05-14T23:46:35.984Z,1.40
2019-05-14T23:49:03.390Z,1.37
2019-05-14T23:51:30.162Z,1.70
2019-05-14T23:53:56.938Z,1.70
2019-05-14T23:56:23.704Z,1.70
2019-05-14T23:58:55.701Z,1.60
